Portada
METAR-TAF:

METAR-TAF

Aeroports :

Aeroport de Londres-Stansted

Londres-Stansted, Anglaterra

latitud: 51-53N, longitud: 000-14E, altitud: 106 m

Observació

L'informe es va fer fa 19 minuts, a les 21:20 UTC
Vent 9 kt del Sud/Sud-Oest
Temperatura 19°C
Humitat 68%
Pressió 1017 hPa
Visibilitat 10 km o més

METAR: EGSS 162120Z AUTO 21009KT 9999 NCD 19/13 Q1017

Hora: 22:39 (21:39 UTC)

Pronòstic

L'informe es va fer fa 4 hores i 42 minuts, a les 16:57 UTC
Pronòstic vàlid del 16 a les 18 UTC al 17 a les 24 UTC
Vent 3 kt amb direcció variable
Visibilitat 10 km o més
Escasses núvols a una alçada de 4500 ft
Evolucionant progressivament
l' 16 a les 22 UTC al 17 a les 01 UTC
Vent 10 kt del Sud/Sud-Oest
Probabilitat 30%
l' 17 a les 02 UTC al 17 a les 07 UTC
Visibilitat: 9000 m
Probabilitat 40% :
Temporalment
l' 17 a les 20 UTC al 17 a les 24 UTC
Visibilitat: 8000 m
pluja

TAF: EGSS 161657Z 1618/1724 VRB03KT 9999 FEW045 BECMG 1622/1701 20010KT PROB30 1702/1707 9000 PROB40 TEMPO 1720/1724 8000 -RA

Observacions i pronòstics meteorològics de més de 4000 aeroports (METAR i TAF).

Les estacions disponibles són els punts grocs i vermells al mapa.

Posi el ratolí al punt desitjat per veure el nom de l'estació.

Feu clic per veure les observacions i els pronòstics meteorològics.

Per canviar el mapa: feu clic els botons verds amb una creu de color negre per apropar; al botó verd amb un guió per allunyar la imatge; o en les fletxes verdes per a mapes adjacents.


METAR-TAF: